createdAt,value
2018-06-01T04:10:19.159Z,2652
2018-06-01T04:10:44.690Z,2676
2018-06-01T04:11:10.216Z,2704
2018-06-01T04:11:35.813Z,2728
2018-06-01T04:12:01.231Z,2752
2018-06-01T04:12:26.695Z,2772
2018-06-01T04:12:52.084Z,2788
2018-06-01T04:13:17.590Z,2796
2018-06-01T04:13:43.130Z,2808
2018-06-01T04:14:08.556Z,2808
2018-06-01T04:14:34.055Z,2820
2018-06-01T04:14:59.574Z,2836
2018-06-01T04:15:25.136Z,2856
2018-06-01T04:15:50.750Z,2888
2018-06-01T04:16:16.089Z,2920
2018-06-01T04:16:41.590Z,2952
2018-06-01T04:17:07.134Z,2996
2018-06-01T04:17:32.641Z,3036
2018-06-01T04:17:58.103Z,3088
2018-06-01T04:18:23.605Z,3140
2018-06-01T04:18:49.012Z,3192
2018-06-01T04:19:14.555Z,3256
2018-06-01T04:19:40.013Z,3312
2018-06-01T04:20:05.523Z,3360
2018-06-01T04:20:30.992Z,3408
2018-06-01T04:20:56.474Z,3464
2018-06-01T04:21:21.965Z,3508
2018-06-01T04:21:47.512Z,3568
2018-06-01T04:22:13.080Z,3624
2018-06-01T04:22:38.554Z,3684
2018-06-01T04:23:04.103Z,3760
2018-06-01T04:23:29.542Z,3832
2018-06-01T04:23:55.073Z,3920
2018-06-01T04:24:20.522Z,4020
2018-06-01T04:24:46.011Z,4120
2018-06-01T04:25:11.482Z,4232
2018-06-01T04:25:36.979Z,4344
2018-06-01T04:26:02.432Z,4448
2018-06-01T04:26:27.921Z,4544
2018-06-01T04:26:53.379Z,4624
2018-06-01T04:27:18.921Z,4692
2018-06-01T04:27:44.385Z,4752
2018-06-01T04:28:09.883Z,4800
2018-06-01T04:28:35.367Z,4844
2018-06-01T04:29:00.843Z,4880
2018-06-01T04:29:26.933Z,4892
2018-06-01T04:29:52.478Z,4904
2018-06-01T04:30:17.866Z,4912
2018-06-01T04:30:43.361Z,4904
2018-06-01T04:31:08.858Z,4884
2018-06-01T04:31:34.344Z,4848
2018-06-01T04:31:59.787Z,4800
2018-06-01T04:32:25.268Z,4740
2018-06-01T04:32:50.746Z,4672
2018-06-01T04:33:16.230Z,4592
2018-06-01T04:33:41.713Z,4484
2018-06-01T04:34:07.108Z,4380
2018-06-01T04:34:32.637Z,4280
2018-06-01T04:34:58.107Z,4228
2018-06-01T04:35:23.617Z,4188
2018-06-01T04:35:49.090Z,4152
2018-06-01T04:36:14.540Z,4100
2018-06-01T04:36:40.071Z,4052
2018-06-01T04:37:05.552Z,4008
2018-06-01T04:37:30.961Z,3980
2018-06-01T04:37:56.429Z,3976
2018-06-01T04:38:21.878Z,3980
2018-06-01T04:38:47.402Z,3996
2018-06-01T04:39:13.030Z,4028
2018-06-01T04:39:38.585Z,4080
2018-06-01T04:40:04.031Z,4140
2018-06-01T04:40:29.505Z,4216
2018-06-01T04:40:55.017Z,4304
2018-06-01T04:41:20.547Z,4404
2018-06-01T04:41:46.028Z,4520
2018-06-01T04:42:11.470Z,4644
2018-06-01T04:42:36.950Z,4772
2018-06-01T04:43:02.403Z,4912
2018-06-01T04:43:27.852Z,5060
2018-06-01T04:43:53.348Z,5212
2018-06-01T04:44:18.849Z,5340
2018-06-01T04:44:44.351Z,5432
2018-06-01T04:45:09.853Z,5472
2018-06-01T04:45:35.324Z,5500
2018-06-01T04:46:00.835Z,5516
2018-06-01T04:46:26.279Z,5532
2018-06-01T04:46:51.714Z,5536
2018-06-01T04:47:17.264Z,5540
2018-06-01T04:47:42.623Z,5556
2018-06-01T04:48:08.121Z,5584
2018-06-01T04:48:33.656Z,5588
2018-06-01T04:48:59.091Z,5568
2018-06-01T04:49:24.556Z,5548
2018-06-01T04:49:50.032Z,5524
2018-06-01T04:50:15.516Z,5496
2018-06-01T04:50:40.971Z,5496
2018-06-01T04:51:06.451Z,5520
2018-06-01T04:51:32.105Z,5536
2018-06-01T04:51:57.567Z,5536
2018-06-01T04:52:23.037Z,5556
2018-06-01T04:52:48.605Z,5620
2018-06-01T04:53:14.151Z,5700
2018-06-01T04:53:39.516Z,5756
2018-06-01T04:54:05.031Z,5772
2018-06-01T04:54:30.540Z,5760
2018-06-01T04:54:56.048Z,5732
2018-06-01T04:55:21.527Z,5736
2018-06-01T04:55:47.045Z,5732
2018-06-01T04:56:12.581Z,5700
2018-06-01T04:56:38.020Z,5700
2018-06-01T04:57:03.511Z,5724
2018-06-01T04:57:29.002Z,5720
2018-06-01T04:57:54.463Z,5668
2018-06-01T04:58:19.961Z,5628
2018-06-01T04:58:45.447Z,5928
2018-06-01T04:59:10.923Z,6000
2018-06-01T04:59:36.408Z,6052
2018-06-01T05:00:01.898Z,6108
2018-06-01T05:00:27.381Z,6192
2018-06-01T05:00:52.865Z,6244
2018-06-01T05:01:18.350Z,6220
2018-06-01T05:01:43.865Z,6156
2018-06-01T05:02:09.372Z,6052
2018-06-01T05:02:34.884Z,5944
2018-06-01T05:03:00.384Z,5860
2018-06-01T05:03:25.907Z,5768
2018-06-01T05:03:51.395Z,5756
2018-06-01T05:04:16.883Z,5772
2018-06-01T05:04:42.383Z,5812
2018-06-01T05:05:07.862Z,5776
2018-06-01T05:05:33.335Z,5668
2018-06-01T05:05:58.810Z,5664
2018-06-01T05:06:24.280Z,5692
2018-06-01T05:06:49.790Z,5704
2018-06-01T05:07:15.298Z,5776
2018-06-01T05:07:40.829Z,5804
2018-06-01T05:08:06.305Z,5764
2018-06-01T05:08:31.775Z,5764
2018-06-01T05:08:57.278Z,5804
2018-06-01T05:09:22.804Z,5796
2018-06-01T05:09:48.269Z,5796
2018-06-01T05:10:13.771Z,5704
2018-06-01T05:10:39.268Z,5592
2018-06-01T05:11:04.765Z,5500
2018-06-01T05:11:30.273Z,5356
2018-06-01T05:11:55.786Z,5248
2018-06-01T05:12:21.298Z,5164
2018-06-01T05:12:46.775Z,5240
2018-06-01T05:13:12.270Z,5328
2018-06-01T05:13:37.750Z,5368
2018-06-01T05:14:03.245Z,5392
2018-06-01T05:14:28.690Z,5420
2018-06-01T05:14:54.161Z,5352
2018-06-01T05:15:19.647Z,5328
2018-06-01T05:15:45.120Z,5368
2018-06-01T05:16:10.577Z,5368
2018-06-01T05:16:36.120Z,5376
2018-06-01T05:17:01.501Z,5444
2018-06-01T05:17:26.992Z,5460
2018-06-01T05:17:52.766Z,5496
2018-06-01T05:18:18.236Z,5540
2018-06-01T05:18:44.047Z,5600
2018-06-01T05:19:09.421Z,5632
2018-06-01T05:19:34.927Z,5560
2018-06-01T05:20:00.388Z,5444
2018-06-01T05:20:25.790Z,5308
2018-06-01T05:20:51.412Z,5216
2018-06-01T05:21:16.780Z,5120
2018-06-01T05:21:42.327Z,5036
2018-06-01T05:22:07.777Z,5004
2018-06-01T05:22:33.322Z,5024
2018-06-01T05:22:58.797Z,5060
2018-06-01T05:23:24.333Z,5068
2018-06-01T05:23:49.731Z,5060
2018-06-01T05:24:15.242Z,5004
2018-06-01T05:24:40.801Z,4980
2018-06-01T05:25:06.289Z,5000
2018-06-01T05:25:31.858Z,4984
2018-06-01T05:25:57.320Z,4980
2018-06-01T05:26:22.834Z,4980
2018-06-01T05:26:48.321Z,5008
2018-06-01T05:27:13.790Z,5048
2018-06-01T05:27:39.313Z,5080
2018-06-01T05:28:04.780Z,5100
2018-06-01T05:28:30.239Z,5100
2018-06-01T05:28:55.741Z,5084
2018-06-01T05:29:21.240Z,5056
2018-06-01T05:29:46.768Z,5024
2018-06-01T05:30:12.289Z,5008
2018-06-01T05:30:37.810Z,4996
2018-06-01T05:31:03.277Z,4996
2018-06-01T05:31:28.750Z,4988
2018-06-01T05:31:54.248Z,4976
2018-06-01T05:32:19.816Z,4992
2018-06-01T05:32:45.460Z,5012
2018-06-01T05:33:10.980Z,5024
2018-06-01T05:33:36.470Z,5052
2018-06-01T05:34:01.960Z,5088
2018-06-01T05:34:27.446Z,5104
2018-06-01T05:34:52.945Z,5144
2018-06-01T05:35:18.507Z,5188
2018-06-01T05:35:44.019Z,5232
2018-06-01T05:36:09.475Z,5316
2018-06-01T05:36:34.990Z,5352
2018-06-01T05:37:00.491Z,5328
2018-06-01T05:37:25.976Z,5352
2018-06-01T05:37:51.481Z,5408
2018-06-01T05:38:16.964Z,5420
2018-06-01T05:38:42.565Z,5376
2018-06-01T05:39:07.981Z,5356
2018-06-01T05:39:33.462Z,5368
2018-06-01T05:39:58.899Z,5364
2018-06-01T05:40:24.371Z,5352
2018-06-01T05:40:49.859Z,5364
2018-06-01T05:41:15.333Z,5372
2018-06-01T05:41:40.850Z,5372
2018-06-01T05:42:44.544Z,5336
2018-06-01T05:43:10.036Z,5328
2018-06-01T05:43:35.534Z,5332
2018-06-01T05:44:01.038Z,5340
2018-06-01T05:44:26.598Z,5364
2018-06-01T05:44:52.057Z,5328
2018-06-01T05:45:17.556Z,5292
2018-06-01T05:45:43.062Z,5252
2018-06-01T05:46:08.555Z,5220
2018-06-01T05:46:34.009Z,5188
2018-06-01T05:46:59.496Z,5156
2018-06-01T05:47:25.040Z,5128
2018-06-01T05:47:50.536Z,5100
2018-06-01T05:48:16.046Z,5080
2018-06-01T05:48:41.519Z,5064
2018-06-01T05:49:06.929Z,5056
2018-06-01T05:49:32.435Z,5060
2018-06-01T05:49:57.895Z,5076
2018-06-01T05:50:23.375Z,5096
2018-06-01T05:50:48.814Z,5104
2018-06-01T05:51:14.351Z,5120
2018-06-01T05:51:39.814Z,5152
2018-06-01T05:52:05.323Z,5188
2018-06-01T05:52:30.888Z,5244
2018-06-01T05:52:56.386Z,5316
2018-06-01T05:53:21.946Z,5376
2018-06-01T05:53:47.503Z,5452
2018-06-01T05:54:12.991Z,5544
2018-06-01T05:54:38.497Z,5596
2018-06-01T05:55:03.994Z,5656
2018-06-01T05:55:29.502Z,5776
2018-06-01T05:55:54.976Z,5844
2018-06-01T05:56:20.610Z,5916
2018-06-01T05:56:46.082Z,6008
2018-06-01T05:57:49.698Z,6112
2018-06-01T05:58:15.194Z,6192
2018-06-01T05:58:40.705Z,6256
2018-06-01T05:59:06.220Z,6260
2018-06-01T05:59:31.711Z,6296
2018-06-01T05:59:57.354Z,6296
2018-06-01T06:00:22.802Z,6288
2018-06-01T06:00:48.377Z,6376
2018-06-01T06:01:13.842Z,6396
2018-06-01T06:01:39.332Z,6416
2018-06-01T06:02:04.782Z,6488
2018-06-01T06:02:30.255Z,6532
2018-06-01T06:02:55.842Z,6596
2018-06-01T06:03:21.278Z,6664
2018-06-01T06:04:24.961Z,6860
2018-06-01T06:04:50.412Z,6948
2018-06-01T06:05:15.933Z,7056
2018-06-01T06:05:41.426Z,7244
2018-06-01T06:06:06.956Z,7484
2018-06-01T06:06:32.428Z,7728
2018-06-01T06:06:57.940Z,8068
2018-06-01T06:07:23.425Z,8392
2018-06-01T06:07:48.927Z,8648
2018-06-01T06:08:14.457Z,8924
2018-06-01T06:08:39.977Z,9276
2018-06-01T06:09:05.546Z,9600
2018-06-01T06:09:31.060Z,10080
2018-06-01T06:09:56.566Z,10360
2018-06-01T06:10:22.091Z,11024
2018-06-01T06:10:47.607Z,10988
2018-06-01T06:11:13.101Z,10752
2018-06-01T06:11:38.600Z,10568
2018-06-01T06:12:04.061Z,11340
2018-06-01T06:12:29.506Z,10796
2018-06-01T06:12:55.050Z,11144
2018-06-01T06:13:20.590Z,11788
2018-06-01T06:13:46.096Z,12396
2018-06-01T06:14:11.587Z,11904
2018-06-01T06:14:37.074Z,11908
2018-06-01T06:16:01.093Z,11100
2018-06-01T06:16:26.612Z,11016
2018-06-01T06:16:52.103Z,10880
2018-06-01T06:17:17.606Z,10644
2018-06-01T06:17:43.108Z,10540
2018-06-01T06:18:08.592Z,10816
2018-06-01T06:18:34.072Z,10532
2018-06-01T06:18:59.654Z,10076
2018-06-01T06:19:25.051Z,9868
2018-06-01T06:19:50.551Z,9784
2018-06-01T06:20:16.054Z,9748
2018-06-01T06:20:41.545Z,9716
2018-06-01T06:21:07.046Z,9660
2018-06-01T06:21:32.537Z,9596
2018-06-01T06:21:58.076Z,9532
2018-06-01T06:22:23.599Z,9480
2018-06-01T06:22:49.079Z,9464
2018-06-01T06:23:14.555Z,9460
2018-06-01T06:23:40.043Z,9488
2018-06-01T06:24:05.535Z,9576
2018-06-01T06:24:31.061Z,9748
2018-06-01T06:24:56.539Z,9996
2018-06-01T06:25:22.026Z,10392
2018-06-01T06:25:47.545Z,11448
2018-06-01T06:26:13.052Z,12396
2018-06-01T06:26:38.547Z,14224
2018-06-01T06:27:04.055Z,13880
2018-06-01T06:27:29.558Z,14664
2018-06-01T06:27:55.086Z,16352
2018-06-01T06:28:20.561Z,13524
2018-06-01T06:28:46.080Z,17376
2018-06-01T06:29:11.559Z,19904
2018-06-01T06:29:37.039Z,18112
2018-06-01T06:30:02.589Z,19840
2018-06-01T06:30:28.090Z,17024
2018-06-01T06:30:53.591Z,15480
2018-06-01T06:31:19.140Z,17728
2018-06-01T06:31:44.583Z,15284
2018-06-01T06:32:10.084Z,18912
2018-06-01T06:32:35.620Z,21248
2018-06-01T06:33:01.124Z,17632
2018-06-01T06:33:26.623Z,16288
2018-06-01T06:33:52.081Z,17536
2018-06-01T06:34:17.611Z,19136
2018-06-01T06:34:43.100Z,19616
2018-06-01T06:35:08.677Z,19968
2018-06-01T06:35:34.203Z,19808
2018-06-01T06:35:59.696Z,19840
2018-06-01T06:36:25.187Z,19520
2018-06-01T06:36:50.689Z,19744
2018-06-01T06:37:16.183Z,19968
2018-06-01T06:37:41.714Z,20128
2018-06-01T06:38:07.201Z,20384
2018-06-01T06:38:32.691Z,20384
2018-06-01T06:38:58.188Z,20224
2018-06-01T06:39:23.744Z,20160
2018-06-01T06:39:49.249Z,20224
2018-06-01T06:40:14.745Z,20352
2018-06-01T06:40:40.240Z,20256
2018-06-01T06:41:05.731Z,20256
2018-06-01T06:41:31.246Z,20320
2018-06-01T06:41:56.726Z,20192
2018-06-01T06:42:22.281Z,20000
2018-06-01T06:42:47.777Z,19776
2018-06-01T06:43:13.295Z,19392
2018-06-01T06:43:38.779Z,19136
2018-06-01T06:44:04.472Z,18688
2018-06-01T06:44:29.925Z,18432
2018-06-01T06:44:55.413Z,18144
2018-06-01T06:45:20.888Z,17888
2018-06-01T06:45:46.415Z,17856
2018-06-01T06:46:11.967Z,17920
2018-06-01T06:46:37.483Z,17792
2018-06-01T06:47:02.965Z,17792
2018-06-01T06:47:28.459Z,17568
2018-06-01T06:47:53.951Z,17344
2018-06-01T06:48:19.456Z,17600
2018-06-01T06:48:44.967Z,17568
2018-06-01T06:49:10.452Z,17568
2018-06-01T06:49:36.026Z,17344
2018-06-01T06:50:01.463Z,17504
2018-06-01T06:50:26.932Z,17472
2018-06-01T06:50:52.419Z,17376
2018-06-01T06:51:17.931Z,17312
2018-06-01T06:51:43.357Z,17024
2018-06-01T06:52:08.882Z,16672
2018-06-01T06:52:34.353Z,16160
2018-06-01T06:52:59.836Z,15384
2018-06-01T06:53:25.345Z,14704
2018-06-01T06:53:51.414Z,14208
2018-06-01T06:54:16.862Z,13580
2018-06-01T06:54:42.593Z,13108
2018-06-01T06:55:07.849Z,12900
2018-06-01T06:55:33.350Z,12972
2018-06-01T06:55:58.882Z,12892
2018-06-01T06:56:24.363Z,12904
2018-06-01T06:56:49.973Z,12728
2018-06-01T06:57:15.349Z,12712
2018-06-01T06:57:41.037Z,12676
2018-06-01T06:58:06.585Z,12668
2018-06-01T06:58:32.088Z,12524
2018-06-01T06:58:57.531Z,12616
2018-06-01T06:59:23.133Z,12592
2018-06-01T06:59:48.771Z,12580
2018-06-01T07:00:14.276Z,12616
2018-06-01T07:00:39.749Z,12552
2018-06-01T07:01:05.226Z,12428
2018-06-01T07:01:30.705Z,12304
2018-06-01T07:01:56.197Z,12344
2018-06-01T07:02:21.702Z,12356
2018-06-01T07:02:47.260Z,12328
2018-06-01T07:03:12.668Z,12344
2018-06-01T07:03:38.313Z,12360
2018-06-01T07:04:03.799Z,12360
2018-06-01T07:04:29.559Z,12216
2018-06-01T07:04:55.107Z,11996
2018-06-01T07:05:20.676Z,11556
2018-06-01T07:05:46.287Z,11272
2018-06-01T07:06:11.813Z,11104
2018-06-01T07:06:37.428Z,10988
2018-06-01T07:07:03.023Z,10936
2018-06-01T07:07:28.568Z,10912
2018-06-01T07:07:54.156Z,10916
2018-06-01T07:08:19.506Z,10700
2018-06-01T07:08:44.913Z,10280
2018-06-01T07:09:10.456Z,9752
2018-06-01T07:09:36.074Z,9576
2018-06-01T07:10:01.478Z,9676
2018-06-01T07:10:27.035Z,9800
2018-06-01T07:10:52.434Z,9652
2018-06-01T07:11:17.929Z,9700
2018-06-01T07:11:43.495Z,9976
2018-06-01T07:12:08.997Z,10240
2018-06-01T07:12:34.514Z,10364
2018-06-01T07:12:59.989Z,10740
2018-06-01T07:13:25.827Z,10948
2018-06-01T07:13:51.438Z,10904
2018-06-01T07:14:16.916Z,10968
2018-06-01T07:14:42.438Z,10968
2018-06-01T07:15:08.166Z,10920
2018-06-01T07:15:33.729Z,10776
2018-06-01T07:15:59.231Z,10536
2018-06-01T07:16:24.822Z,10348
2018-06-01T07:16:50.760Z,10088
2018-06-01T07:17:16.763Z,9964
2018-06-01T07:17:42.320Z,9892
2018-06-01T07:18:08.153Z,9876
2018-06-01T07:18:33.613Z,9844
2018-06-01T07:18:59.047Z,9716
2018-06-01T07:19:24.620Z,9492
2018-06-01T07:19:50.396Z,9168
2018-06-01T07:20:15.934Z,8684
2018-06-01T07:20:41.471Z,8240
2018-06-01T07:21:06.945Z,7820
2018-06-01T07:21:32.449Z,7412
2018-06-01T07:21:57.899Z,7076
2018-06-01T07:22:23.420Z,6808
2018-06-01T07:22:48.884Z,6580
2018-06-01T07:23:14.332Z,6392
2018-06-01T07:23:39.795Z,6248
2018-06-01T07:24:05.268Z,6140
2018-06-01T07:24:30.772Z,6056
2018-06-01T07:24:56.295Z,5996
2018-06-01T07:25:21.765Z,5964
2018-06-01T07:25:47.278Z,5936
2018-06-01T07:26:12.713Z,5908
2018-06-01T07:26:38.218Z,5884
2018-06-01T07:27:03.713Z,5868
2018-06-01T07:27:29.217Z,5844
2018-06-01T07:27:54.745Z,5828
2018-06-01T07:28:20.214Z,5828
2018-06-01T07:28:45.678Z,5828
2018-06-01T07:29:11.123Z,5828
2018-06-01T07:29:36.620Z,5828
2018-06-01T07:30:02.133Z,5828
2018-06-01T07:30:27.637Z,5824
2018-06-01T07:30:53.054Z,5816
2018-06-01T07:31:18.601Z,5812
2018-06-01T07:31:44.110Z,5816
2018-06-01T07:32:09.534Z,5824
2018-06-01T07:32:35.031Z,5840
2018-06-01T07:33:00.456Z,5852
2018-06-01T07:33:25.923Z,5876
2018-06-01T07:33:51.444Z,5904
2018-06-01T07:34:16.967Z,5936
2018-06-01T07:34:42.379Z,5968
2018-06-01T07:35:07.860Z,6004
2018-06-01T07:35:33.340Z,6048
2018-06-01T07:35:58.846Z,6080
2018-06-01T07:36:24.331Z,6100
2018-06-01T07:36:49.812Z,6124
2018-06-01T07:37:15.279Z,6136
2018-06-01T07:37:40.795Z,6148
2018-06-01T07:38:06.294Z,6164
2018-06-01T07:38:31.798Z,6172
2018-06-01T07:38:57.214Z,6180
2018-06-01T07:39:22.688Z,6176
2018-06-01T07:39:48.534Z,6164
2018-06-01T07:40:14.087Z,6132
2018-06-01T07:40:39.637Z,6096
2018-06-01T07:41:05.098Z,6040
2018-06-01T07:41:30.508Z,5964
2018-06-01T07:41:56.085Z,5876
2018-06-01T07:42:21.809Z,5760
2018-06-01T07:42:47.301Z,5628
2018-06-01T07:43:12.817Z,5468
2018-06-01T07:43:38.332Z,5304
2018-06-01T07:44:03.880Z,5120
2018-06-01T07:44:29.437Z,4932
2018-06-01T07:44:54.942Z,4760
2018-06-01T07:45:20.486Z,4608
2018-06-01T07:45:46.036Z,4468
2018-06-01T07:46:11.558Z,4348
2018-06-01T07:46:37.063Z,4248
2018-06-01T07:47:02.563Z,4172
2018-06-01T07:47:28.103Z,4092
2018-06-01T07:47:53.613Z,4012
2018-06-01T07:48:19.124Z,3928
2018-06-01T07:48:44.642Z,3848
2018-06-01T07:49:10.113Z,3772
2018-06-01T07:49:35.622Z,3688
2018-06-01T07:50:01.175Z,3616
2018-06-01T07:50:26.642Z,3540
2018-06-01T07:50:52.109Z,3492
2018-06-01T07:51:17.575Z,3456
2018-06-01T07:51:43.078Z,3416
2018-06-01T07:52:08.584Z,3392
2018-06-01T07:53:12.200Z,3352
2018-06-01T07:53:37.699Z,3328
2018-06-01T07:54:03.199Z,3296
2018-06-01T07:54:28.728Z,3256
2018-06-01T07:54:54.166Z,3200
2018-06-01T07:55:19.612Z,3120
2018-06-01T07:55:45.090Z,3028
2018-06-01T07:56:10.635Z,2936
2018-06-01T07:56:36.064Z,2844
2018-06-01T07:57:01.517Z,2748
2018-06-01T07:57:26.988Z,2656
2018-06-01T07:57:52.437Z,2548
2018-06-01T07:58:17.909Z,2432
2018-06-01T07:58:43.364Z,2300
2018-06-01T07:59:08.836Z,2140
2018-06-01T07:59:34.340Z,1968
2018-06-01T07:59:59.818Z,1828
2018-06-01T08:00:25.333Z,1724
2018-06-01T08:00:50.800Z,1656
2018-06-01T08:01:16.289Z,1624
2018-06-01T08:01:41.774Z,1608
2018-06-01T08:02:07.208Z,1608
2018-06-01T08:02:32.710Z,1608
2018-06-01T08:02:58.235Z,1612
2018-06-01T08:03:23.718Z,1616
2018-06-01T08:03:49.201Z,1620
2018-06-01T08:04:14.693Z,1612
2018-06-01T08:04:40.168Z,1576
2018-06-01T08:05:05.656Z,1424
2018-06-01T08:05:31.124Z,1332
2018-06-01T08:05:56.722Z,1508
2018-06-01T08:06:22.152Z,1720
2018-06-01T08:06:47.619Z,1836
2018-06-01T08:07:13.076Z,1940
2018-06-01T08:07:38.585Z,1992
2018-06-01T08:08:04.294Z,1768
2018-06-01T08:08:29.824Z,1588
2018-06-01T08:08:55.275Z,1640
2018-06-01T08:09:20.718Z,1788
2018-06-01T08:09:46.258Z,1908
2018-06-01T08:10:11.709Z,2020
2018-06-01T08:10:37.157Z,2052
2018-06-01T08:11:02.662Z,2044
2018-06-01T08:11:28.110Z,2036
2018-06-01T08:11:53.605Z,2048
2018-06-01T08:12:19.181Z,2064
2018-06-01T08:12:44.544Z,2092
2018-06-01T08:13:09.981Z,2096
2018-06-01T08:13:35.559Z,2080
2018-06-01T08:14:01.044Z,2028
2018-06-01T08:14:26.659Z,1956
2018-06-01T08:14:52.368Z,1864
2018-06-01T08:15:18.405Z,1764
2018-06-01T08:15:43.870Z,1660
2018-06-01T08:16:09.417Z,1536
2018-06-01T08:16:34.970Z,1404
2018-06-01T08:17:00.478Z,1284
2018-06-01T08:17:26.067Z,1184
2018-06-01T08:17:52.009Z,1104
2018-06-01T08:18:17.452Z,1060
2018-06-01T08:18:43.050Z,1044
2018-06-01T08:19:08.454Z,1060
2018-06-01T08:19:33.990Z,1100
2018-06-01T08:19:59.487Z,1184
2018-06-01T08:20:25.066Z,1288
2018-06-01T08:20:50.498Z,1392
2018-06-01T08:21:15.962Z,1496
2018-06-01T08:21:41.636Z,1560
2018-06-01T08:22:07.221Z,1584
2018-06-01T08:22:33.353Z,1584
2018-06-01T08:22:58.843Z,1596
2018-06-01T08:23:24.548Z,1632
2018-06-01T08:23:50.083Z,1676
2018-06-01T08:24:15.675Z,1736
2018-06-01T08:24:41.174Z,1816
2018-06-01T08:25:06.626Z,1916
2018-06-01T08:25:32.156Z,2044
2018-06-01T08:25:57.646Z,2200
2018-06-01T08:26:23.138Z,2360
2018-06-01T08:26:48.735Z,2492
2018-06-01T08:27:14.284Z,2592
2018-06-01T08:27:39.961Z,2688
2018-06-01T08:28:05.911Z,2768
2018-06-01T08:28:31.751Z,2844
2018-06-01T08:28:57.805Z,2892
2018-06-01T08:29:23.237Z,2904
2018-06-01T08:29:48.703Z,2884
2018-06-01T08:30:14.335Z,2856
2018-06-01T08:30:39.884Z,2828
2018-06-01T08:31:05.562Z,2820
2018-06-01T08:31:30.978Z,2840
2018-06-01T08:31:56.839Z,2896
2018-06-01T08:32:22.633Z,2960
2018-06-01T08:32:47.889Z,2988
2018-06-01T08:33:13.391Z,2988
2018-06-01T08:33:39.171Z,2956
2018-06-01T08:34:04.781Z,2904
2018-06-01T08:34:30.404Z,2836
2018-06-01T08:34:55.858Z,2788
2018-06-01T08:35:21.386Z,2776
2018-06-01T08:35:47.210Z,2796
2018-06-01T08:36:12.528Z,2792
2018-06-01T08:36:38.081Z,2704
2018-06-01T08:37:03.575Z,2612
2018-06-01T08:37:29.122Z,2516
2018-06-01T08:37:55.663Z,2456
2018-06-01T08:38:20.273Z,2432
2018-06-01T08:38:45.777Z,2428
2018-06-01T08:39:11.289Z,2416
2018-06-01T08:39:37.149Z,2404
2018-06-01T08:40:02.751Z,2384
2018-06-01T08:40:28.362Z,2348
2018-06-01T08:40:54.151Z,2340
2018-06-01T08:41:19.617Z,2364
2018-06-01T08:41:45.180Z,2392
2018-06-01T08:42:10.634Z,2420
2018-06-01T08:42:36.347Z,2440
2018-06-01T08:43:02.054Z,2460
2018-06-01T08:43:27.472Z,2472
2018-06-01T08:43:52.968Z,2480
2018-06-01T08:44:18.390Z,2480
2018-06-01T08:44:43.894Z,2492
2018-06-01T08:45:09.383Z,2500
2018-06-01T08:45:34.865Z,2484
2018-06-01T08:46:00.386Z,2436
2018-06-01T08:46:25.888Z,2364
2018-06-01T08:46:51.377Z,2280
2018-06-01T08:47:16.930Z,2216
2018-06-01T08:47:42.488Z,2172
2018-06-01T08:48:07.990Z,2172
2018-06-01T08:48:33.521Z,2232
2018-06-01T08:48:59.170Z,2320
2018-06-01T08:49:24.818Z,2392
2018-06-01T08:49:51.084Z,2428
2018-06-01T08:50:16.764Z,2440
2018-06-01T08:50:42.304Z,2408
2018-06-01T08:51:07.892Z,2328
2018-06-01T08:51:33.506Z,2180
2018-06-01T08:51:59.090Z,2008
2018-06-01T08:52:24.773Z,1872
2018-06-01T08:52:50.348Z,1760
2018-06-01T08:53:15.731Z,1684
2018-06-01T08:53:41.377Z,1632
2018-06-01T08:54:06.942Z,1588
2018-06-01T08:54:32.451Z,1560
2018-06-01T08:54:58.008Z,1536
2018-06-01T08:55:23.585Z,1536
2018-06-01T08:55:49.158Z,1540
2018-06-01T08:56:15.118Z,1540
2018-06-01T08:56:40.507Z,1544
2018-06-01T08:57:06.123Z,1556
2018-06-01T08:57:31.873Z,1560
2018-06-01T08:57:57.359Z,1556
2018-06-01T08:58:22.879Z,1560
2018-06-01T08:58:48.610Z,1556
2018-06-01T08:59:14.176Z,1552
2018-06-01T08:59:39.757Z,1556
2018-06-01T09:00:05.248Z,1552
2018-06-01T09:00:30.811Z,1540
2018-06-01T09:00:56.353Z,1492
2018-06-01T09:01:21.865Z,1444
2018-06-01T09:01:47.337Z,1384
2018-06-01T09:02:12.912Z,1344
2018-06-01T09:02:38.454Z,1292
2018-06-01T09:03:03.905Z,1256
2018-06-01T09:03:29.363Z,1212
2018-06-01T09:03:54.847Z,1160
2018-06-01T09:04:20.395Z,1108
2018-06-01T09:04:45.987Z,1056
2018-06-01T09:05:11.699Z,1008
2018-06-01T09:05:37.333Z,992
2018-06-01T09:06:02.826Z,984
2018-06-01T09:06:28.396Z,988
2018-06-01T09:06:53.860Z,1008
2018-06-01T09:07:19.366Z,1028
2018-06-01T09:07:44.789Z,1048
2018-06-01T09:08:10.217Z,1056
2018-06-01T09:08:35.722Z,1064
2018-06-01T09:09:01.193Z,1056
2018-06-01T09:09:26.692Z,1032
2018-06-01T09:09:52.225Z,1008
2018-06-01T09:10:17.797Z,980
2018-06-01T09:10:43.208Z,956
2018-06-01T09:11:08.649Z,928
2018-06-01T09:11:34.149Z,904
2018-06-01T09:11:59.631Z,892
2018-06-01T09:12:25.097Z,884
2018-06-01T09:12:50.593Z,884
2018-06-01T09:13:16.061Z,884
2018-06-01T09:13:41.511Z,896
2018-06-01T09:14:06.992Z,908
2018-06-01T09:14:32.450Z,932
2018-06-01T09:14:57.939Z,948
2018-06-01T09:15:23.415Z,964
2018-06-01T09:15:48.895Z,976
2018-06-01T09:16:14.388Z,980
2018-06-01T09:16:39.940Z,992
2018-06-01T09:17:05.347Z,996
2018-06-01T09:17:30.820Z,996
2018-06-01T09:17:56.364Z,1000
2018-06-01T09:18:21.945Z,996
2018-06-01T09:18:47.368Z,976
2018-06-01T09:19:12.856Z,968
2018-06-01T09:19:38.344Z,968
2018-06-01T09:20:03.792Z,968
2018-06-01T09:20:29.268Z,984
2018-06-01T09:20:54.740Z,1004
2018-06-01T09:21:20.223Z,1032
2018-06-01T09:21:45.723Z,1040
2018-06-01T09:22:11.281Z,1052
2018-06-01T09:22:36.722Z,1064
2018-06-01T09:23:02.208Z,1076
2018-06-01T09:23:27.722Z,1088
2018-06-01T09:23:53.191Z,1096
2018-06-01T09:24:18.689Z,1104
2018-06-01T09:24:44.291Z,1108
2018-06-01T09:25:09.778Z,1116
2018-06-01T09:25:35.284Z,1128
2018-06-01T09:26:00.801Z,1128
2018-06-01T09:26:26.304Z,1128
2018-06-01T09:26:51.808Z,1140
2018-06-01T09:27:17.312Z,1144
2018-06-01T09:27:42.853Z,1156
2018-06-01T09:28:08.356Z,1168
2018-06-01T09:28:33.811Z,1168
2018-06-01T09:28:59.327Z,1184
2018-06-01T09:29:24.820Z,1204
2018-06-01T09:29:50.326Z,1224
2018-06-01T09:30:15.826Z,1256
2018-06-01T09:30:41.356Z,1268
2018-06-01T09:31:06.853Z,1292
2018-06-01T09:31:32.339Z,1304
2018-06-01T09:31:57.840Z,1316
2018-06-01T09:33:01.473Z,1348
2018-06-01T09:33:26.972Z,1360
2018-06-01T09:33:52.469Z,1372
2018-06-01T09:34:17.972Z,1376
2018-06-01T09:34:43.483Z,1380
2018-06-01T09:35:08.960Z,1380
2018-06-01T09:35:34.466Z,1380
2018-06-01T09:35:59.971Z,1388
2018-06-01T09:36:25.470Z,1392
2018-06-01T09:36:50.983Z,1408
2018-06-01T09:37:16.454Z,1420
2018-06-01T09:37:41.953Z,1440
2018-06-01T09:38:07.417Z,1452
2018-06-01T09:39:16.128Z,1520
2018-06-01T09:39:41.637Z,1548
2018-06-01T09:40:07.144Z,1576
2018-06-01T09:40:32.645Z,1608
2018-06-01T09:40:58.151Z,1644
2018-06-01T09:41:23.654Z,1688
2018-06-01T09:41:49.182Z,1740
2018-06-01T09:42:14.676Z,1796
2018-06-01T09:42:40.183Z,1860
2018-06-01T09:43:05.654Z,1932
2018-06-01T09:43:31.135Z,1996
2018-06-01T09:43:56.663Z,2056
2018-06-01T09:44:22.168Z,2116
2018-06-01T09:44:47.661Z,2176
2018-06-01T09:45:13.156Z,2240
2018-06-01T09:45:38.661Z,2300
2018-06-01T09:46:04.174Z,2376
2018-06-01T09:46:29.672Z,2452
2018-06-01T09:46:55.147Z,2524
2018-06-01T09:47:20.661Z,2604
2018-06-01T09:47:46.131Z,2684
2018-06-01T09:48:11.615Z,2764
2018-06-01T09:48:37.131Z,2856
2018-06-01T09:49:02.650Z,2948
2018-06-01T09:49:28.154Z,3036
2018-06-01T09:49:53.630Z,3124
2018-06-01T09:50:19.146Z,3200
2018-06-01T09:50:44.651Z,3272
2018-06-01T09:51:10.167Z,3344
2018-06-01T09:52:18.856Z,3564
2018-06-01T09:52:44.362Z,3644
2018-06-01T09:53:09.853Z,3740
2018-06-01T09:53:35.352Z,3844